Time;durP1;ratioP1;P1;durP2;ratioP2;P2;SDS_P1;SDS_P2;PMS_P1;PMS_P2;Temp;Humidity;BMP_temperature;BMP_pressure;BME280_temperature;BME280_humidity;BME280_pressure;Samples;Min_cycle;Max_cycle;Signal;HPM_P1;HPM_P2
2022/03/07 00:00:59;;;;;;;17.42;7.80;;;4.90;99.90;;;;;;5225862;28;20053;-77
2022/03/07 00:03:30;;;;;;;18.58;6.68;;;4.80;99.90;;;;;;5225987;28;20389;-78
2022/03/07 00:06:01;;;;;;;13.40;6.68;;;4.80;99.90;;;;;;5227121;28;20485;-81
2022/03/07 00:08:32;;;;;;;13.68;6.85;;;4.80;99.90;;;;;;5225714;28;20029;-77
2022/03/07 00:11:03;;;;;;;16.60;7.07;;;4.70;99.90;;;;;;5227183;28;20469;-78
2022/03/07 00:13:35;;;;;;;12.27;6.22;;;4.80;99.90;;;;;;5227133;28;20484;-78
2022/03/07 00:16:06;;;;;;;14.68;6.00;;;4.70;99.90;;;;;;5226977;28;20020;-77
2022/03/07 00:18:37;;;;;;;15.75;6.15;;;4.70;99.90;;;;;;5227140;28;20395;-77
2022/03/07 00:21:12;;;;;;;12.40;6.57;;;4.70;99.90;;;;;;5227044;28;20108;-78
2022/03/07 00:23:48;;;;;;;14.10;6.93;;;4.70;99.90;;;;;;5226902;28;20055;-78
2022/03/07 00:26:28;;;;;;;18.10;7.07;;;4.70;99.90;;;;;;5226917;28;20402;-78
2022/03/07 00:29:03;;;;;;;11.57;7.18;;;4.60;99.90;;;;;;5226699;28;20477;-78
2022/03/07 00:31:41;;;;;;;15.88;6.93;;;4.50;99.90;;;;;;5229402;28;20433;-78
2022/03/07 00:34:12;;;;;;;14.77;6.10;;;4.50;99.90;;;;;;5246131;28;20586;-77
2022/03/07 00:36:43;;;;;;;15.70;6.25;;;4.60;99.90;;;;;;5230532;28;20091;-77
2022/03/07 00:39:14;;;;;;;14.95;6.22;;;4.50;99.90;;;;;;5230554;28;20032;-79
2022/03/07 00:41:45;;;;;;;15.50;6.30;;;4.50;99.90;;;;;;5230478;28;20025;-77
2022/03/07 00:44:16;;;;;;;17.98;6.82;;;4.40;99.90;;;;;;5229090;28;20024;-77
2022/03/07 00:46:46;;;;;;;11.57;6.22;;;4.50;99.90;;;;;;5230443;28;20045;-80
2022/03/07 00:49:17;;;;;;;16.08;6.15;;;4.50;99.90;;;;;;5230341;28;20104;-77
2022/03/07 00:51:48;;;;;;;14.63;6.22;;;4.40;99.90;;;;;;5230742;28;20487;-81
2022/03/07 00:54:19;;;;;;;21.85;6.15;;;4.30;99.90;;;;;;5228747;28;20492;-78
2022/03/07 00:56:50;;;;;;;10.48;5.32;;;4.40;99.90;;;;;;5230165;28;20044;-77
2022/03/07 00:59:21;;;;;;;11.18;5.15;;;4.40;99.90;;;;;;5229858;28;20029;-78
2022/03/07 01:01:51;;;;;;;12.18;5.93;;;4.40;99.90;;;;;;5229964;28;20032;-81
2022/03/07 01:04:22;;;;;;;10.32;5.15;;;4.30;99.90;;;;;;5230468;28;20474;-78
2022/03/07 01:06:53;;;;;;;10.52;5.13;;;4.30;99.90;;;;;;5228801;28;20120;-78
2022/03/07 01:09:24;;;;;;;12.20;5.80;;;4.30;99.90;;;;;;5229993;28;20025;-78
2022/03/07 01:11:55;;;;;;;9.48;5.50;;;4.30;99.90;;;;;;5229916;28;20082;-78
2022/03/07 01:14:26;;;;;;;15.65;6.03;;;4.30;99.90;;;;;;5229868;28;20056;-78
2022/03/07 01:16:56;;;;;;;9.43;4.90;;;4.40;99.90;;;;;;5228403;28;20060;-77
2022/03/07 01:19:27;;;;;;;10.30;5.20;;;4.40;99.90;;;;;;5228496;28;20056;-78
2022/03/07 01:21:58;;;;;;;12.57;4.80;;;4.20;99.90;;;;;;5229784;28;20033;-77
2022/03/07 01:24:30;;;;;;;9.48;4.60;;;4.20;99.90;;;;;;5229647;28;20420;-77
2022/03/07 01:27:01;;;;;;;10.82;5.68;;;4.30;99.90;;;;;;5244960;28;20131;-78
2022/03/07 01:29:32;;;;;;;9.38;4.85;;;4.30;99.90;;;;;;5229400;28;20112;-77
2022/03/07 01:32:03;;;;;;;12.07;5.60;;;4.40;99.90;;;;;;5229557;28;20078;-78
2022/03/07 01:34:34;;;;;;;9.05;4.18;;;4.30;99.90;;;;;;5228478;28;20029;-78
2022/03/07 01:37:05;;;;;;;8.90;4.15;;;4.20;99.90;;;;;;5228114;28;20025;-77
2022/03/07 01:39:35;;;;;;;12.00;4.78;;;4.20;99.90;;;;;;5229315;28;20021;-77
2022/03/07 01:42:06;;;;;;;7.43;4.28;;;4.20;99.90;;;;;;5229023;28;20025;-77
2022/03/07 01:44:38;;;;;;;8.52;4.60;;;4.20;99.90;;;;;;5228983;28;20025;-77
2022/03/07 01:47:09;;;;;;;12.27;4.78;;;4.20;99.90;;;;;;5229105;28;20084;-77
2022/03/07 01:49:40;;;;;;;10.68;5.80;;;4.20;99.90;;;;;;5229203;28;20029;-77
2022/03/07 01:52:12;;;;;;;13.82;4.70;;;4.30;99.90;;;;;;5229493;28;20456;-77
2022/03/07 01:54:43;;;;;;;100.45;32.40;;;4.20;99.90;;;;;;5227864;28;20566;-77
2022/03/07 01:57:15;;;;;;;174.05;67.32;;;4.30;99.90;;;;;;5227610;28;20041;-77
2022/03/07 01:59:46;;;;;;;36.17;21.13;;;4.20;99.90;;;;;;5227500;28;20469;-77
2022/03/07 02:02:17;;;;;;;44.75;26.42;;;4.20;99.90;;;;;;5228767;28;20033;-77
2022/03/07 02:04:48;;;;;;;53.85;30.48;;;4.20;99.90;;;;;;5227521;28;20025;-78
2022/03/07 02:07:18;;;;;;;12.77;7.50;;;4.10;99.90;;;;;;5229411;28;20025;-77
2022/03/07 02:09:50;;;;;;;22.38;12.10;;;4.20;99.90;;;;;;5244207;28;20021;-77
2022/03/07 02:12:21;;;;;;;45.63;26.80;;;4.20;99.90;;;;;;5228677;28;20029;-78
2022/03/07 02:14:52;;;;;;;85.43;47.55;;;4.30;99.90;;;;;;5244006;28;20028;-78
2022/03/07 02:17:23;;;;;;;49.42;24.60;;;4.30;99.90;;;;;;5227175;28;20025;-78
2022/03/07 02:19:53;;;;;;;315.10;158.20;;;4.20;99.90;;;;;;5243955;28;20021;-77
2022/03/07 02:22:24;;;;;;;77.68;40.92;;;4.20;99.90;;;;;;5227248;28;20036;-77
2022/03/07 02:24:55;;;;;;;48.92;23.70;;;4.20;99.90;;;;;;5228842;28;20033;-77
2022/03/07 02:27:26;;;;;;;47.22;28.35;;;4.30;99.90;;;;;;5227104;28;20516;-77
2022/03/07 02:30:05;;;;;;;48.17;32.88;;;4.20;99.90;;;;;;5228949;28;20033;-77
2022/03/07 02:32:36;;;;;;;14.80;7.57;;;4.30;99.90;;;;;;5228413;28;20025;-77
2022/03/07 02:35:07;;;;;;;76.40;46.97;;;4.30;99.90;;;;;;5228222;28;20019;-77
2022/03/07 02:37:38;;;;;;;36.83;22.15;;;4.20;99.90;;;;;;5228552;28;20103;-77
2022/03/07 02:40:11;;;;;;;28.67;17.30;;;4.30;99.90;;;;;;5228456;28;20100;-77
2022/03/07 02:42:41;;;;;;;15.40;9.70;;;4.20;99.90;;;;;;5226925;28;20032;-77
2022/03/07 02:45:12;;;;;;;42.55;29.90;;;4.10;99.90;;;;;;5227794;28;20056;-77
2022/03/07 02:47:43;;;;;;;10.45;6.88;;;4.30;99.90;;;;;;5227168;28;20465;-77
2022/03/07 02:50:14;;;;;;;16.67;9.50;;;4.30;99.90;;;;;;5228643;28;20349;-77
2022/03/07 02:52:45;;;;;;;12.07;6.18;;;4.20;99.90;;;;;;5227510;28;20025;-77
2022/03/07 02:55:15;;;;;;;14.50;7.25;;;4.20;99.90;;;;;;5227983;28;20013;-78
2022/03/07 02:57:46;;;;;;;12.80;5.53;;;4.20;99.90;;;;;;5227691;28;20082;-78
2022/03/07 03:00:17;;;;;;;13.60;7.95;;;4.10;99.90;;;;;;5226257;28;20119;-77
2022/03/07 03:02:48;;;;;;;26.10;17.92;;;4.20;99.90;;;;;;5226595;28;20021;-78
2022/03/07 03:05:19;;;;;;;12.60;7.97;;;4.20;99.90;;;;;;5226577;28;20028;-77
2022/03/07 03:07:53;;;;;;;23.67;15.30;;;4.20;99.90;;;;;;5226563;28;20025;-81
2022/03/07 03:10:24;;;;;;;11.18;6.25;;;4.20;99.90;;;;;;5226495;28;20025;-79
2022/03/07 03:12:55;;;;;;;13.68;8.88;;;4.30;99.90;;;;;;5227702;28;20043;-82
2022/03/07 03:15:26;;;;;;;13.30;8.30;;;4.20;99.90;;;;;;5227596;28;20547;-78
2022/03/07 03:17:57;;;;;;;22.77;12.02;;;4.20;99.90;;;;;;5226466;28;20485;-77
2022/03/07 03:20:27;;;;;;;15.57;10.10;;;4.20;99.90;;;;;;5227931;28;20079;-77
2022/03/07 03:22:58;;;;;;;12.27;5.75;;;4.00;99.90;;;;;;5243146;28;20025;-77
2022/03/07 03:25:29;;;;;;;14.85;9.27;;;4.10;99.90;;;;;;5226289;28;20041;-78
2022/03/07 03:28:00;;;;;;;8.43;4.50;;;4.00;99.90;;;;;;5227120;28;20021;-77
2022/03/07 03:30:31;;;;;;;7.90;4.55;;;4.10;99.90;;;;;;5227580;28;20037;-77
2022/03/07 03:33:03;;;;;;;16.65;8.93;;;4.10;99.90;;;;;;5226295;28;20021;-77
2022/03/07 03:35:36;;;;;;;11.27;6.07;;;4.00;99.90;;;;;;5227484;28;20029;-77
2022/03/07 03:38:10;;;;;;;13.45;7.13;;;4.00;99.90;;;;;;5227513;28;20071;-77
2022/03/07 03:40:41;;;;;;;8.07;5.28;;;4.10;99.90;;;;;;5227553;28;20033;-77
2022/03/07 03:43:12;;;;;;;10.02;6.03;;;4.00;99.90;;;;;;5227425;28;20028;-77
2022/03/07 03:45:43;;;;;;;10.25;6.50;;;4.10;99.90;;;;;;5227534;28;20094;-77
2022/03/07 03:48:14;;;;;;;14.68;9.93;;;3.90;99.90;;;;;;5226151;28;20358;-77
2022/03/07 03:50:45;;;;;;;9.73;5.65;;;4.10;99.90;;;;;;5227370;28;20099;-77
2022/03/07 03:53:16;;;;;;;11.27;8.55;;;4.10;99.90;;;;;;5225873;28;20021;-77
2022/03/07 03:55:47;;;;;;;8.43;4.75;;;4.00;99.90;;;;;;5227267;28;20021;-77
2022/03/07 03:58:18;;;;;;;8.55;4.43;;;3.90;99.90;;;;;;5225679;28;20028;-77
2022/03/07 04:00:49;;;;;;;11.88;5.10;;;4.10;99.90;;;;;;5227179;28;20053;-77
2022/03/07 04:03:20;;;;;;;10.80;5.47;;;4.10;99.90;;;;;;5225720;28;20104;-77
2022/03/07 04:05:50;;;;;;;10.88;7.22;;;4.20;99.90;;;;;;5230223;28;20029;-77
2022/03/07 04:08:22;;;;;;;9.55;5.93;;;3.90;99.90;;;;;;5229681;28;20457;-77
2022/03/07 04:10:52;;;;;;;8.50;5.82;;;4.10;99.90;;;;;;5231165;28;20029;-77
2022/03/07 04:13:23;;;;;;;6.93;4.30;;;4.10;99.90;;;;;;5229821;28;20384;-77
2022/03/07 04:15:54;;;;;;;7.20;4.60;;;4.00;99.90;;;;;;5229413;28;20472;-77
2022/03/07 04:18:25;;;;;;;10.57;4.30;;;4.00;99.90;;;;;;5229625;28;20082;-77
2022/03/07 04:20:55;;;;;;;12.68;6.10;;;4.10;99.90;;;;;;5230788;28;20025;-77
2022/03/07 04:23:26;;;;;;;8.95;4.75;;;4.00;99.90;;;;;;5246308;28;20025;-77
2022/03/07 04:25:57;;;;;;;9.18;4.95;;;4.00;99.90;;;;;;5229527;28;20130;-78
2022/03/07 04:28:28;;;;;;;14.55;8.25;;;4.00;99.90;;;;;;5230748;28;20395;-77
2022/03/07 04:30:59;;;;;;;8.73;6.05;;;4.00;99.90;;;;;;5229277;28;20116;-77
2022/03/07 04:33:30;;;;;;;10.98;5.32;;;4.10;99.90;;;;;;5229488;28;20021;-77
2022/03/07 04:36:00;;;;;;;5.45;3.75;;;4.10;99.90;;;;;;5230381;28;20025;-77
2022/03/07 04:38:32;;;;;;;7.03;5.07;;;4.10;99.90;;;;;;5229309;28;20028;-77
2022/03/07 04:41:03;;;;;;;8.13;4.80;;;4.10;99.90;;;;;;5230470;28;20066;-77
2022/03/07 04:43:33;;;;;;;10.30;5.55;;;4.10;99.90;;;;;;5230621;28;20021;-77
2022/03/07 04:46:07;;;;;;;12.68;5.97;;;4.10;99.90;;;;;;5230436;28;20052;-77
2022/03/07 04:48:38;;;;;;;8.98;5.30;;;4.10;99.90;;;;;;5230576;28;20464;-77
2022/03/07 04:51:09;;;;;;;8.48;5.53;;;4.00;99.90;;;;;;5228896;28;20078;-77
2022/03/07 04:53:40;;;;;;;9.27;4.93;;;4.10;99.90;;;;;;5230154;28;20365;-77
2022/03/07 04:56:11;;;;;;;10.50;5.93;;;4.20;99.90;;;;;;5228940;28;20433;-77
2022/03/07 04:58:42;;;;;;;11.30;5.53;;;4.10;99.90;;;;;;5229978;28;20033;-77
2022/03/07 05:01:14;;;;;;;9.75;5.65;;;4.10;99.90;;;;;;5220936;28;20574;-77
2022/03/07 05:03:45;;;;;;;8.23;4.65;;;4.20;99.90;;;;;;5209524;28;20018;-77
2022/03/07 05:06:16;;;;;;;14.30;5.13;;;4.20;99.90;;;;;;5208095;28;20037;-77
2022/03/07 05:08:46;;;;;;;10.48;5.75;;;4.20;99.90;;;;;;5209295;28;20026;-77
2022/03/07 05:11:17;;;;;;;8.98;5.03;;;4.20;99.90;;;;;;5207719;28;20034;-78
2022/03/07 05:13:48;;;;;;;11.65;4.72;;;4.10;99.90;;;;;;5209393;28;20473;-77
2022/03/07 05:16:19;;;;;;;11.02;6.22;;;4.30;99.90;;;;;;5206781;28;20025;-78
2022/03/07 05:18:49;;;;;;;10.68;5.13;;;4.30;99.90;;;;;;5209146;28;20053;-77
2022/03/07 05:21:20;;;;;;;9.23;5.38;;;4.30;99.90;;;;;;5207885;28;20033;-82
2022/03/07 05:23:51;;;;;;;8.13;4.72;;;4.30;99.90;;;;;;5209121;28;20022;-76
2022/03/07 05:26:22;;;;;;;7.40;4.65;;;4.30;99.90;;;;;;5207742;28;20037;-77
2022/03/07 05:28:53;;;;;;;6.57;3.83;;;4.30;99.90;;;;;;5207593;28;20035;-80
2022/03/07 05:31:23;;;;;;;10.18;3.85;;;4.20;99.90;;;;;;5208927;28;20029;-76
2022/03/07 05:33:54;;;;;;;9.85;4.35;;;4.20;99.90;;;;;;5208901;28;20025;-76
2022/03/07 05:36:26;;;;;;;96.68;54.08;;;4.20;99.90;;;;;;5208781;28;20031;-77
2022/03/07 05:38:57;;;;;;;52.95;30.35;;;4.30;99.90;;;;;;5207548;28;20033;-84
2022/03/07 05:41:28;;;;;;;119.85;69.88;;;4.30;99.90;;;;;;5201987;28;20029;-86
2022/03/07 05:43:59;;;;;;;13.82;7.85;;;4.30;99.90;;;;;;5198339;28;20057;-86
2022/03/07 05:46:30;;;;;;;16.25;9.45;;;4.30;99.90;;;;;;5199103;28;20114;-85
2022/03/07 05:49:01;;;;;;;13.18;8.63;;;4.40;99.90;;;;;;5205584;28;20484;-83
2022/03/07 05:51:32;;;;;;;21.92;13.10;;;4.40;99.90;;;;;;5186825;28;20030;-85
2022/03/07 05:54:03;;;;;;;24.67;17.25;;;4.40;99.90;;;;;;5190707;28;20089;-78
2022/03/07 05:56:34;;;;;;;19.92;12.05;;;4.50;99.90;;;;;;5207124;28;20095;-77
2022/03/07 05:59:04;;;;;;;19.83;11.40;;;4.40;99.90;;;;;;5208018;28;20045;-77
2022/03/07 06:01:35;;;;;;;23.20;9.38;;;4.40;99.90;;;;;;5208186;28;20100;-77
2022/03/07 06:04:06;;;;;;;13.85;8.02;;;4.40;99.90;;;;;;5206911;28;20031;-76
2022/03/07 06:06:37;;;;;;;9.15;6.53;;;4.50;99.90;;;;;;5208052;28;20030;-76
2022/03/07 06:09:08;;;;;;;13.40;6.50;;;4.50;99.90;;;;;;5206881;28;20571;-80
2022/03/07 06:11:40;;;;;;;14.45;6.10;;;4.50;99.90;;;;;;5205834;28;20028;-80
2022/03/07 06:14:11;;;;;;;24.58;13.85;;;4.50;99.90;;;;;;5202685;28;20072;-80
2022/03/07 06:16:42;;;;;;;40.83;23.70;;;4.40;99.90;;;;;;5186210;28;20049;-81
2022/03/07 06:19:13;;;;;;;8.18;6.53;;;4.60;99.90;;;;;;5187437;28;20497;-79
2022/03/07 06:21:44;;;;;;;10.73;5.20;;;4.40;99.90;;;;;;5187450;28;20050;-82
2022/03/07 06:24:17;;;;;;;12.38;6.55;;;4.50;99.90;;;;;;5187473;28;20058;-81
2022/03/07 06:26:48;;;;;;;10.07;6.93;;;4.50;99.90;;;;;;5187194;28;20176;-81
2022/03/07 06:29:19;;;;;;;13.60;6.70;;;4.60;99.90;;;;;;5186460;28;20108;-83
2022/03/07 06:31:50;;;;;;;12.30;5.32;;;4.50;99.90;;;;;;5186781;28;20026;-82
2022/03/07 06:34:20;;;;;;;9.43;5.45;;;4.50;99.90;;;;;;5207484;28;20079;-83
2022/03/07 06:36:51;;;;;;;12.25;8.38;;;4.50;99.90;;;;;;5198227;28;20030;-84
2022/03/07 06:39:25;;;;;;;11.93;7.20;;;4.50;99.90;;;;;;5187142;28;20080;-83
2022/03/07 06:41:56;;;;;;;11.52;6.22;;;4.70;99.90;;;;;;5196693;28;20125;-83
2022/03/07 06:44:27;;;;;;;11.75;6.03;;;4.60;99.90;;;;;;5207375;28;20071;-83
2022/03/07 06:46:59;;;;;;;14.45;9.85;;;4.60;99.90;;;;;;5206201;28;20389;-84
2022/03/07 06:49:29;;;;;;;13.80;6.95;;;4.60;99.90;;;;;;5207404;28;20025;-84
2022/03/07 06:52:01;;;;;;;12.20;6.82;;;4.70;99.90;;;;;;5188721;28;20089;-79
2022/03/07 06:54:32;;;;;;;11.02;6.32;;;4.80;99.90;;;;;;5187068;28;20022;-76
2022/03/07 06:57:03;;;;;;;8.68;5.97;;;4.90;99.90;;;;;;5186756;28;20030;-80
2022/03/07 06:59:34;;;;;;;11.52;7.32;;;4.80;99.90;;;;;;5185214;28;20060;-78
2022/03/07 07:02:05;;;;;;;16.80;10.38;;;4.90;99.90;;;;;;5185415;28;20477;-77
2022/03/07 07:04:36;;;;;;;26.95;17.38;;;4.80;99.90;;;;;;5186643;28;20540;-77
2022/03/07 07:07:07;;;;;;;9.43;6.60;;;4.80;99.90;;;;;;5185567;28;20029;-77
2022/03/07 07:09:39;;;;;;;13.00;9.80;;;4.90;99.90;;;;;;5186815;28;20549;-77
2022/03/07 07:12:10;;;;;;;10.98;7.93;;;4.90;99.90;;;;;;5198560;28;20465;-77
2022/03/07 07:14:41;;;;;;;9.98;7.72;;;4.80;99.90;;;;;;5206879;28;20068;-82
2022/03/07 07:17:12;;;;;;;10.13;5.93;;;4.80;99.90;;;;;;5205793;28;20025;-83
2022/03/07 07:19:43;;;;;;;20.83;12.82;;;5.00;99.90;;;;;;5189529;28;20452;-81
2022/03/07 07:22:14;;;;;;;18.13;9.50;;;5.00;99.90;;;;;;5190684;28;20029;-81
2022/03/07 07:24:45;;;;;;;11.43;6.88;;;5.00;99.90;;;;;;5204175;28;20033;-79
2022/03/07 07:27:16;;;;;;;11.45;5.88;;;4.80;99.90;;;;;;5199044;28;20037;-82
2022/03/07 07:29:47;;;;;;;8.30;5.35;;;4.80;99.90;;;;;;5188537;28;20114;-82
2022/03/07 07:32:18;;;;;;;9.50;5.40;;;5.00;99.90;;;;;;5185208;28;20022;-84
2022/03/07 07:34:50;;;;;;;10.32;5.72;;;4.90;99.90;;;;;;5185160;28;20026;-85
2022/03/07 07:37:21;;;;;;;15.18;8.60;;;4.90;99.90;;;;;;5186488;28;20022;-82
2022/03/07 07:39:52;;;;;;;14.60;11.40;;;5.00;99.90;;;;;;5204106;28;20469;-84
2022/03/07 07:42:22;;;;;;;12.00;5.10;;;4.90;99.90;;;;;;5204042;28;20030;-80
2022/03/07 07:44:53;;;;;;;12.27;7.55;;;5.00;99.90;;;;;;5188619;28;20034;-79
2022/03/07 07:47:27;;;;;;;5.43;3.40;;;4.90;99.90;;;;;;5190458;28;20026;-81
2022/03/07 07:49:57;;;;;;;10.45;5.80;;;5.10;99.90;;;;;;5188987;28;20068;-78
2022/03/07 07:52:28;;;;;;;5.82;2.78;;;5.00;99.90;;;;;;5194953;28;20033;-84
2022/03/07 07:54:59;;;;;;;8.00;3.83;;;5.00;99.90;;;;;;5200448;28;20049;-82
2022/03/07 07:57:30;;;;;;;8.80;4.68;;;5.10;99.90;;;;;;5190221;28;20107;-79
2022/03/07 08:00:03;;;;;;;8.80;4.63;;;5.20;99.90;;;;;;5188631;28;20061;-81
2022/03/07 08:02:34;;;;;;;13.40;8.35;;;5.20;99.90;;;;;;5190148;28;20493;-80
2022/03/07 08:05:05;;;;;;;19.83;9.82;;;5.30;99.90;;;;;;5200993;28;20028;-79
2022/03/07 08:07:36;;;;;;;11.70;5.70;;;5.60;99.90;;;;;;5208576;28;20037;-83
2022/03/07 08:10:07;;;;;;;5.85;2.30;;;5.60;99.90;;;;;;5210442;28;20026;-83
2022/03/07 08:12:38;;;;;;;10.07;3.75;;;5.40;99.90;;;;;;5192169;28;20092;-82
2022/03/07 08:15:12;;;;;;;8.40;4.43;;;5.40;99.90;;;;;;5189815;28;20034;-79
2022/03/07 08:17:49;;;;;;;55.17;22.42;;;5.40;99.90;;;;;;5189768;28;20052;-81
2022/03/07 08:20:23;;;;;;;97.57;41.78;;;5.40;99.90;;;;;;5188790;28;20034;-79
2022/03/07 08:22:54;;;;;;;38.33;21.40;;;5.30;99.90;;;;;;5189710;28;20022;-78
2022/03/07 08:25:25;;;;;;;105.68;51.28;;;5.40;99.90;;;;;;5188244;28;20121;-76
2022/03/07 08:27:56;;;;;;;45.00;20.23;;;5.40;99.90;;;;;;5207419;28;20104;-78
2022/03/07 08:30:28;;;;;;;34.47;16.88;;;5.50;99.90;;;;;;5210147;28;20038;-79
2022/03/07 08:32:59;;;;;;;19.90;11.18;;;5.60;99.90;;;;;;5210063;28;20381;-85
2022/03/07 08:35:30;;;;;;;17.98;10.18;;;5.30;99.90;;;;;;5209943;28;20026;-87
2022/03/07 08:38:01;;;;;;;22.23;12.63;;;5.40;99.90;;;;;;5205765;28;20037;-84
2022/03/07 08:40:32;;;;;;;13.25;7.13;;;5.60;99.90;;;;;;5188038;28;20014;-86
2022/03/07 08:43:03;;;;;;;7.15;4.40;;;5.50;99.90;;;;;;5209468;28;20087;-85
2022/03/07 08:45:34;;;;;;;6.88;4.13;;;5.70;99.90;;;;;;5209487;28;20080;-83
2022/03/07 08:48:05;;;;;;;12.35;4.00;;;5.70;99.90;;;;;;5188697;28;20120;-85
2022/03/07 08:50:35;;;;;;;6.88;3.60;;;5.60;99.90;;;;;;5187221;28;20116;-84
2022/03/07 08:53:07;;;;;;;9.40;3.60;;;5.60;99.90;;;;;;5187065;28;20381;-79
2022/03/07 08:55:38;;;;;;;7.97;3.08;;;5.60;99.90;;;;;;5188814;28;20041;-80
2022/03/07 08:58:09;;;;;;;5.57;3.83;;;5.70;99.90;;;;;;5187430;28;20022;-79
2022/03/07 09:00:40;;;;;;;9.65;3.80;;;5.70;99.90;;;;;;5188559;28;20058;-84
2022/03/07 09:03:11;;;;;;;7.32;3.17;;;5.70;99.90;;;;;;5188560;28;20026;-86
2022/03/07 09:05:42;;;;;;;6.20;3.17;;;5.60;99.90;;;;;;5187508;28;20512;-82
2022/03/07 09:08:13;;;;;;;6.80;2.92;;;5.90;99.90;;;;;;5207496;28;20080;-79
2022/03/07 09:10:44;;;;;;;9.52;4.75;;;6.00;99.90;;;;;;5209053;28;20030;-82
2022/03/07 09:13:14;;;;;;;7.55;3.55;;;6.00;99.90;;;;;;5208119;28;20030;-83
2022/03/07 09:15:48;;;;;;;8.80;4.30;;;6.00;99.90;;;;;;5208346;28;20103;-81
2022/03/07 09:18:20;;;;;;;7.13;3.55;;;5.90;99.90;;;;;;5187879;28;20026;-80
2022/03/07 09:20:50;;;;;;;9.00;4.70;;;5.80;99.90;;;;;;5197642;28;20057;-80
2022/03/07 09:23:22;;;;;;;11.18;6.68;;;5.70;99.90;;;;;;5224241;28;20521;-80
2022/03/07 09:25:52;;;;;;;9.45;3.60;;;5.80;99.90;;;;;;5208704;28;20069;-79
2022/03/07 09:28:23;;;;;;;15.10;5.90;;;5.50;99.90;;;;;;5207852;28;20064;-76
2022/03/07 09:30:54;;;;;;;19.17;9.63;;;5.80;99.90;;;;;;5207314;28;20370;-76
2022/03/07 09:33:25;;;;;;;17.08;9.40;;;5.70;99.90;;;;;;5208649;28;20029;-79
2022/03/07 09:35:56;;;;;;;14.45;7.18;;;5.80;99.90;;;;;;5190483;28;20053;-79
2022/03/07 09:38:29;;;;;;;20.83;12.18;;;5.80;99.90;;;;;;5188161;28;20481;-80
2022/03/07 09:41:01;;;;;;;19.55;8.88;;;5.60;99.90;;;;;;5190286;28;20119;-75
2022/03/07 09:43:32;;;;;;;24.00;13.57;;;5.80;99.90;;;;;;5192806;28;20030;-75
2022/03/07 09:46:04;;;;;;;10.70;5.45;;;5.70;99.90;;;;;;5188017;28;20382;-80
2022/03/07 09:48:34;;;;;;;18.85;11.05;;;5.50;99.90;;;;;;5194957;28;20539;-77
2022/03/07 09:51:06;;;;;;;23.02;11.70;;;5.60;99.90;;;;;;5202322;28;20033;-84
2022/03/07 09:53:36;;;;;;;20.83;8.32;;;5.60;99.90;;;;;;5207402;28;20018;-75
2022/03/07 09:56:07;;;;;;;20.80;10.52;;;5.60;99.90;;;;;;5206819;28;20078;-76
2022/03/07 09:58:38;;;;;;;19.85;8.40;;;5.80;99.90;;;;;;5206792;28;20026;-76
2022/03/07 10:01:16;;;;;;;11.00;5.47;;;5.60;99.90;;;;;;5208053;28;20571;-76
2022/03/07 10:03:48;;;;;;;21.75;10.85;;;5.50;99.90;;;;;;5191460;28;20018;-76
2022/03/07 10:06:19;;;;;;;12.73;5.45;;;5.40;99.90;;;;;;5206642;28;20527;-75
2022/03/07 10:08:58;;;;;;;10.55;4.47;;;5.40;99.90;;;;;;5197558;28;20050;-75
2022/03/07 10:11:31;;;;;;;16.13;8.00;;;5.40;99.90;;;;;;5194859;28;20381;-74
2022/03/07 10:14:04;;;;;;;8.45;4.20;;;5.50;99.90;;;;;;5191242;28;20018;-80
2022/03/07 10:16:38;;;;;;;11.73;6.55;;;5.60;99.90;;;;;;5200728;28;20092;-83
2022/03/07 10:19:13;;;;;;;12.93;4.53;;;5.60;99.90;;;;;;5187641;28;20024;-76
2022/03/07 10:21:49;;;;;;;11.00;3.22;;;5.50;99.90;;;;;;5203732;28;20377;-75
2022/03/07 10:24:34;;;;;;;9.40;3.70;;;5.20;99.90;;;;;;5207806;28;20017;-75
2022/03/07 10:27:05;;;;;;;9.88;5.43;;;5.40;99.90;;;;;;5207773;28;20477;-75
2022/03/07 10:29:48;;;;;;;10.05;4.90;;;5.40;99.90;;;;;;5206360;28;20033;-76
2022/03/07 10:32:20;;;;;;;6.60;4.13;;;5.50;99.90;;;;;;5187412;28;20084;-76
2022/03/07 10:34:51;;;;;;;4.93;2.80;;;5.50;99.90;;;;;;5187276;28;20137;-76
2022/03/07 10:37:36;;;;;;;7.95;3.50;;;5.50;99.90;;;;;;5187250;28;20424;-76
2022/03/07 10:40:16;;;;;;;6.47;3.95;;;5.50;99.90;;;;;;5185973;28;20022;-76
2022/03/07 10:42:48;;;;;;;10.65;4.68;;;5.60;99.90;;;;;;5205173;28;20462;-76
2022/03/07 10:45:20;;;;;;;7.47;3.75;;;5.60;99.90;;;;;;5207575;28;20044;-75
2022/03/07 10:48:00;;;;;;;9.05;3.75;;;5.50;99.90;;;;;;5207355;28;20036;-77
2022/03/07 10:50:31;;;;;;;9.25;3.88;;;5.50;99.90;;;;;;5207597;28;20021;-76
2022/03/07 10:53:07;;;;;;;6.35;3.85;;;5.60;99.90;;;;;;5207407;28;20022;-76
2022/03/07 10:55:38;;;;;;;9.63;4.20;;;5.60;99.90;;;;;;5206071;28;20489;-76
2022/03/07 10:58:14;;;;;;;5.32;3.92;;;5.60;99.90;;;;;;5203550;28;20489;-76
2022/03/07 11:00:58;;;;;;;10.57;6.85;;;5.50;99.90;;;;;;5188338;28;20059;-81
2022/03/07 11:03:33;;;;;;;11.73;6.13;;;5.60;99.90;;;;;;5201037;28;20108;-80
2022/03/07 11:06:05;;;;;;;13.10;5.57;;;5.70;99.90;;;;;;5187998;28;20065;-76
2022/03/07 11:08:35;;;;;;;14.07;5.68;;;5.80;99.90;;;;;;5185123;28;20022;-74
2022/03/07 11:11:06;;;;;;;9.10;4.72;;;5.90;99.90;;;;;;5192721;28;20478;-80
2022/03/07 11:13:37;;;;;;;7.75;4.60;;;5.80;99.90;;;;;;5187469;28;20076;-82
2022/03/07 11:16:09;;;;;;;10.02;4.00;;;5.90;99.90;;;;;;5186441;28;20474;-81
2022/03/07 11:18:42;;;;;;;7.55;3.58;;;5.70;99.90;;;;;;5186404;28;20373;-80
2022/03/07 11:21:13;;;;;;;9.30;4.38;;;5.60;99.90;;;;;;5185369;28;20073;-76
2022/03/07 11:23:44;;;;;;;7.93;4.38;;;5.70;99.90;;;;;;5186591;28;20469;-76
2022/03/07 11:26:20;;;;;;;5.07;3.45;;;5.50;99.90;;;;;;5205542;28;20095;-76
2022/03/07 11:28:51;;;;;;;6.20;3.80;;;5.50;99.90;;;;;;5197680;28;20025;-80
2022/03/07 11:31:23;;;;;;;6.38;4.43;;;5.70;99.90;;;;;;5186458;28;20077;-80
2022/03/07 11:33:56;;;;;;;11.88;3.58;;;5.80;99.90;;;;;;5186542;28;20037;-79
2022/03/07 11:36:29;;;;;;;7.55;3.83;;;5.60;99.90;;;;;;5186085;28;20037;-80
2022/03/07 11:39:02;;;;;;;9.23;4.25;;;5.40;99.90;;;;;;5185430;28;20087;-82
2022/03/07 11:41:38;;;;;;;5.57;3.42;;;5.70;99.90;;;;;;5194700;28;20038;-80
2022/03/07 11:44:14;;;;;;;9.15;3.75;;;5.40;99.90;;;;;;5190901;28;20014;-80
2022/03/07 11:46:51;;;;;;;11.65;6.28;;;5.40;99.90;;;;;;5207254;28;20033;-79
2022/03/07 11:49:31;;;;;;;18.45;9.32;;;5.40;99.90;;;;;;5205873;28;20075;-81
2022/03/07 11:52:14;;;;;;;85.82;41.33;;;5.30;99.90;;;;;;5206621;28;20469;-79
2022/03/07 11:54:59;;;;;;;25.50;14.65;;;5.30;99.90;;;;;;5192439;28;20030;-75
2022/03/07 11:57:39;;;;;;;12.95;8.50;;;5.30;99.90;;;;;;5186068;28;20030;-75
2022/03/07 12:00:18;;;;;;;12.40;6.20;;;5.40;99.90;;;;;;5184713;28;20501;-74
2022/03/07 12:02:51;;;;;;;10.85;5.78;;;5.80;99.90;;;;;;5186016;28;20056;-79
2022/03/07 12:05:31;;;;;;;18.58;8.13;;;5.70;99.90;;;;;;5185682;28;20473;-81
2022/03/07 12:08:15;;;;;;;7.90;5.20;;;5.60;99.90;;;;;;5200466;28;20450;-80
2022/03/07 12:10:59;;;;;;;13.10;5.50;;;5.80;99.90;;;;;;5192589;28;20032;-82
2022/03/07 12:13:32;;;;;;;9.63;6.25;;;5.60;99.90;;;;;;5199218;28;20025;-74
2022/03/07 12:16:03;;;;;;;8.10;5.40;;;5.50;99.90;;;;;;5201927;28;20489;-74
2022/03/07 12:18:36;;;;;;;7.80;4.10;;;5.60;99.90;;;;;;5185829;28;20480;-79
2022/03/07 12:21:06;;;;;;;9.00;4.43;;;5.50;99.90;;;;;;5195773;28;20504;-79
2022/03/07 12:23:38;;;;;;;5.82;3.45;;;5.40;99.90;;;;;;5209112;28;20025;-74
2022/03/07 12:26:10;;;;;;;7.90;3.67;;;5.10;99.90;;;;;;5199807;28;20060;-73
2022/03/07 12:28:43;;;;;;;21.48;12.25;;;5.20;99.90;;;;;;5205488;28;20041;-74
2022/03/07 12:31:14;;;;;;;21.85;11.23;;;5.30;99.90;;;;;;5200152;28;20014;-74
2022/03/07 12:33:46;;;;;;;61.08;31.95;;;5.30;99.90;;;;;;5199035;28;20366;-73
2022/03/07 12:36:17;;;;;;;25.58;11.40;;;5.40;99.90;;;;;;5198721;28;20118;-79
2022/03/07 12:38:54;;;;;;;31.63;18.75;;;5.30;99.90;;;;;;5204014;28;20076;-79
2022/03/07 12:41:36;;;;;;;46.28;25.48;;;5.50;99.90;;;;;;5206565;28;20045;-80
2022/03/07 12:44:07;;;;;;;111.82;59.30;;;5.60;99.90;;;;;;5198798;28;20409;-79
2022/03/07 12:46:38;;;;;;;18.02;10.38;;;5.40;99.90;;;;;;5208365;28;20068;-77
2022/03/07 12:49:09;;;;;;;30.05;17.90;;;5.50;99.90;;;;;;5197862;28;20493;-79
2022/03/07 12:51:40;;;;;;;11.05;6.30;;;5.50;99.90;;;;;;5187819;28;20042;-78
2022/03/07 12:54:10;;;;;;;7.55;4.55;;;5.50;99.90;;;;;;5188793;28;20018;-80
2022/03/07 12:56:47;;;;;;;14.52;7.38;;;5.20;99.90;;;;;;5193817;28;20481;-79
2022/03/07 12:59:25;;;;;;;17.17;10.32;;;5.30;99.90;;;;;;5207689;28;20126;-79
2022/03/07 13:01:57;;;;;;;11.93;6.10;;;5.40;99.90;;;;;;5206542;28;20052;-79
2022/03/07 13:04:30;;;;;;;8.48;4.32;;;5.40;99.90;;;;;;5207996;28;20034;-79
2022/03/07 13:07:12;;;;;;;15.10;7.32;;;5.10;99.90;;;;;;5198561;28;20025;-78
2022/03/07 13:09:42;;;;;;;9.10;6.70;;;5.20;99.90;;;;;;5188739;28;20037;-80
2022/03/07 13:12:13;;;;;;;9.48;4.90;;;5.30;99.90;;;;;;5190473;28;20029;-77